createdAt,value
2022-11-15T00:01:19.854Z,7.80
2022-11-15T00:03:48.463Z,7.80
2022-11-15T00:06:16.679Z,7.80
2022-11-15T00:08:46.908Z,7.70
2022-11-15T00:11:16.495Z,7.80
2022-11-15T00:13:44.643Z,7.70
2022-11-15T00:16:12.774Z,7.70
2022-11-15T00:18:47.751Z,7.70
2022-11-15T00:21:19.937Z,7.80
2022-11-15T00:23:48.446Z,7.80
2022-11-15T00:26:17.949Z,7.70
2022-11-15T00:28:46.483Z,7.70
2022-11-15T00:31:16.020Z,7.70
2022-11-15T00:33:46.293Z,7.70
2022-11-15T00:36:15.093Z,7.60
2022-11-15T00:38:43.198Z,7.60
2022-11-15T00:41:11.430Z,7.60
2022-11-15T00:43:44.691Z,7.60
2022-11-15T00:46:12.988Z,7.60
2022-11-15T00:48:41.544Z,7.60
2022-11-15T00:51:09.793Z,7.50
2022-11-15T00:53:37.920Z,7.50
2022-11-15T00:56:06.476Z,7.50
2022-11-15T00:58:35.168Z,7.50
2022-11-15T01:01:12.349Z,7.50
2022-11-15T01:03:42.080Z,7.50
2022-11-15T01:06:12.768Z,7.40
2022-11-15T01:08:41.375Z,7.40
2022-11-15T01:11:11.828Z,7.40
2022-11-15T01:13:41.306Z,7.40
2022-11-15T01:16:14.149Z,7.40
2022-11-15T01:18:42.920Z,7.40
2022-11-15T01:21:15.419Z,7.40
2022-11-15T01:23:46.685Z,7.40
2022-11-15T01:26:17.160Z,7.40
2022-11-15T01:28:45.349Z,7.30
2022-11-15T01:31:18.378Z,7.30
2022-11-15T01:33:46.860Z,7.30
2022-11-15T01:36:18.480Z,7.30
2022-11-15T01:38:47.118Z,7.30
2022-11-15T01:41:20.174Z,7.30
2022-11-15T01:43:50.603Z,7.30
2022-11-15T01:46:29.148Z,7.30
2022-11-15T01:49:02.191Z,7.20
2022-11-15T01:51:33.445Z,7.20
2022-11-15T01:54:06.636Z,7.20
2022-11-15T01:56:40.036Z,7.20
2022-11-15T01:59:10.527Z,7.20
2022-11-15T02:01:40.456Z,7.10
2022-11-15T02:04:13.756Z,7.10
2022-11-15T02:06:43.248Z,7.10
2022-11-15T02:09:12.006Z,7.00
2022-11-15T02:11:40.843Z,7.00
2022-11-15T02:14:11.536Z,6.90
2022-11-15T02:16:51.746Z,6.80
2022-11-15T02:19:35.192Z,6.70
2022-11-15T02:22:17.192Z,6.70
2022-11-15T02:25:13.862Z,6.70
2022-11-15T02:28:18.789Z,6.70
2022-11-15T02:30:52.502Z,6.70
2022-11-15T02:33:32.908Z,6.70
2022-11-15T02:36:03.745Z,6.60
2022-11-15T02:38:48.584Z,6.70
2022-11-15T02:41:21.589Z,6.60
2022-11-15T02:43:58.465Z,6.60
2022-11-15T02:46:53.043Z,6.60
2022-11-15T02:49:22.133Z,6.60
2022-11-15T02:51:53.015Z,6.60
2022-11-15T02:54:24.858Z,6.60
2022-11-15T02:56:58.421Z,6.60
2022-11-15T02:59:54.097Z,6.60
2022-11-15T03:02:42.533Z,6.60
2022-11-15T03:05:19.910Z,6.60
2022-11-15T03:08:01.846Z,6.60
2022-11-15T03:10:38.288Z,6.50
2022-11-15T03:13:16.096Z,6.50
2022-11-15T03:15:50.756Z,6.50
2022-11-15T03:18:24.517Z,6.50
2022-11-15T03:20:53.584Z,6.50
2022-11-15T03:23:21.795Z,6.40
2022-11-15T03:25:53.492Z,6.40
2022-11-15T03:28:26.163Z,6.30
2022-11-15T03:30:56.223Z,6.30
2022-11-15T03:33:26.242Z,6.20
2022-11-15T03:35:56.721Z,6.20
2022-11-15T03:38:27.833Z,6.20
2022-11-15T03:41:01.465Z,6.20
2022-11-15T03:43:38.627Z,6.10
2022-11-15T03:46:15.396Z,6.10
2022-11-15T03:49:02.929Z,6.10
2022-11-15T03:51:32.232Z,6.10
2022-11-15T03:54:00.377Z,6.10
2022-11-15T03:56:28.905Z,6.10
2022-11-15T03:58:57.091Z,6.00
2022-11-15T04:01:25.392Z,6.00
2022-11-15T04:03:55.448Z,6.00
2022-11-15T04:06:23.694Z,5.90
2022-11-15T04:08:53.515Z,5.90
2022-11-15T04:11:22.003Z,5.90
2022-11-15T04:13:50.190Z,5.90
2022-11-15T04:16:18.317Z,5.90
2022-11-15T04:19:07.337Z,5.90
2022-11-15T04:21:54.496Z,5.90
2022-11-15T04:24:23.145Z,5.90
2022-11-15T04:26:51.531Z,5.90
2022-11-15T04:29:36.889Z,5.90
2022-11-15T04:32:06.568Z,5.90
2022-11-15T04:34:35.348Z,5.90
2022-11-15T04:37:14.231Z,5.90
2022-11-15T04:39:43.095Z,5.90
2022-11-15T04:42:12.032Z,5.90
2022-11-15T04:44:40.924Z,5.90
2022-11-15T04:47:09.023Z,6.00
2022-11-15T04:49:37.100Z,5.90
2022-11-15T04:52:07.064Z,5.90
2022-11-15T04:54:35.183Z,6.00
2022-11-15T04:57:03.282Z,6.00
2022-11-15T04:59:31.878Z,6.00
2022-11-15T05:01:59.989Z,6.00
2022-11-15T05:04:27.397Z,6.00
2022-11-15T05:06:56.026Z,6.00
2022-11-15T05:09:25.560Z,6.00
2022-11-15T05:11:53.676Z,6.00
2022-11-15T05:14:21.901Z,6.00
2022-11-15T05:16:50.134Z,6.00
2022-11-15T05:19:18.245Z,6.00
2022-11-15T05:21:46.742Z,6.00
2022-11-15T05:24:15.453Z,6.00
2022-11-15T05:26:44.916Z,6.00
2022-11-15T05:29:13.323Z,6.10
2022-11-15T05:31:43.584Z,6.10
2022-11-15T05:34:12.104Z,6.10
2022-11-15T05:36:46.085Z,6.10
2022-11-15T05:39:14.528Z,6.10
2022-11-15T05:41:47.902Z,6.10
2022-11-15T05:44:19.450Z,6.10
2022-11-15T05:46:48.305Z,6.10
2022-11-15T05:49:19.752Z,6.10
2022-11-15T05:51:49.422Z,6.10
2022-11-15T05:54:18.519Z,6.10
2022-11-15T05:56:48.913Z,6.10
2022-11-15T05:59:17.620Z,6.10
2022-11-15T06:01:45.865Z,6.10
2022-11-15T06:04:14.324Z,6.20
2022-11-15T06:06:42.404Z,6.20
2022-11-15T06:09:10.555Z,6.20
2022-11-15T06:11:39.183Z,6.20
2022-11-15T06:14:08.788Z,6.20
2022-11-15T06:16:36.940Z,6.20
2022-11-15T06:19:05.673Z,6.30
2022-11-15T06:21:33.805Z,6.30
2022-11-15T06:24:02.557Z,6.30
2022-11-15T06:26:31.160Z,6.30
2022-11-15T06:28:59.397Z,6.30
2022-11-15T06:31:28.944Z,6.40
2022-11-15T06:33:57.509Z,6.40
2022-11-15T06:36:26.116Z,6.40
2022-11-15T06:38:54.309Z,6.40
2022-11-15T06:41:23.560Z,6.40
2022-11-15T06:43:52.144Z,6.40
2022-11-15T06:46:20.231Z,6.40
2022-11-15T06:48:50.382Z,6.40
2022-11-15T06:51:18.639Z,6.50
2022-11-15T06:53:46.760Z,6.50
2022-11-15T06:56:15.323Z,6.50
2022-11-15T06:58:45.183Z,6.50
2022-11-15T07:01:14.905Z,6.50
2022-11-15T07:03:44.994Z,6.60
2022-11-15T07:06:14.601Z,6.60
2022-11-15T07:08:43.332Z,6.60
2022-11-15T07:11:12.309Z,6.60
2022-11-15T07:13:40.417Z,6.60
2022-11-15T07:16:10.395Z,6.60
2022-11-15T07:18:39.894Z,6.70
2022-11-15T07:21:09.686Z,6.70
2022-11-15T07:23:40.837Z,6.70
2022-11-15T07:26:09.664Z,6.70
2022-11-15T07:28:38.031Z,6.70
2022-11-15T07:31:07.737Z,6.70
2022-11-15T07:33:35.894Z,6.70
2022-11-15T07:36:05.313Z,6.70
2022-11-15T07:38:38.022Z,6.70
2022-11-15T07:41:10.650Z,6.70
2022-11-15T07:43:40.763Z,6.70
2022-11-15T07:46:10.888Z,6.70
2022-11-15T07:48:44.572Z,6.70
2022-11-15T07:51:15.485Z,6.70
2022-11-15T07:53:44.438Z,6.60
2022-11-15T07:56:14.726Z,6.60
2022-11-15T07:58:43.089Z,6.60
2022-11-15T08:01:12.578Z,6.60
2022-11-15T08:03:40.992Z,6.60
2022-11-15T08:06:09.379Z,6.60
2022-11-15T08:08:38.091Z,6.60
2022-11-15T08:11:06.363Z,6.60
2022-11-15T08:13:36.025Z,6.70
2022-11-15T08:16:06.536Z,6.70
2022-11-15T08:18:35.501Z,6.80
2022-11-15T08:21:03.964Z,6.80
2022-11-15T08:23:33.164Z,6.80
2022-11-15T08:26:03.797Z,6.80
2022-11-15T08:28:32.555Z,6.80
2022-11-15T08:31:02.786Z,6.90
2022-11-15T08:33:32.071Z,6.90
2022-11-15T08:36:01.452Z,6.90
2022-11-15T08:38:31.767Z,6.90
2022-11-15T08:41:04.894Z,6.90
2022-11-15T08:43:33.258Z,6.90
2022-11-15T08:46:03.365Z,6.80
2022-11-15T08:48:32.503Z,6.80
2022-11-15T08:51:03.399Z,6.90
2022-11-15T08:53:31.562Z,7.00
2022-11-15T08:56:00.449Z,7.00
2022-11-15T08:58:29.897Z,7.00
2022-11-15T09:00:58.135Z,7.00
2022-11-15T09:03:27.761Z,7.00
2022-11-15T09:05:58.040Z,6.90
2022-11-15T09:08:46.576Z,6.90
2022-11-15T09:11:16.018Z,7.00
2022-11-15T09:13:44.333Z,7.10
2022-11-15T09:16:13.063Z,7.10
2022-11-15T09:18:43.212Z,7.10
2022-11-15T09:21:12.002Z,7.00
2022-11-15T09:23:40.074Z,7.00
2022-11-15T09:26:09.301Z,7.00
2022-11-15T09:28:39.191Z,7.00
2022-11-15T09:31:07.946Z,7.00
2022-11-15T09:33:36.749Z,7.00
2022-11-15T09:36:09.737Z,7.10
2022-11-15T09:38:38.661Z,7.10
2022-11-15T09:41:42.400Z,7.10
2022-11-15T09:44:27.264Z,7.10
2022-11-15T09:47:05.024Z,7.10
2022-11-15T09:49:34.637Z,7.10
2022-11-15T09:52:05.633Z,7.20
2022-11-15T09:54:53.864Z,7.20
2022-11-15T09:57:30.458Z,7.20
2022-11-15T10:00:44.140Z,7.20
2022-11-15T10:03:16.201Z,7.20
2022-11-15T10:05:46.447Z,7.20
2022-11-15T10:08:34.180Z,7.20
2022-11-15T10:11:35.476Z,7.30
2022-11-15T10:13:55.597Z,7.30
2022-11-15T10:16:53.296Z,7.30
2022-11-15T10:19:28.624Z,7.40
2022-11-15T10:22:08.310Z,7.50
2022-11-15T10:24:42.641Z,7.50
2022-11-15T10:27:14.500Z,7.50
2022-11-15T10:29:46.283Z,7.50
2022-11-15T10:32:16.175Z,7.50
2022-11-15T10:34:44.643Z,7.40
2022-11-15T10:37:13.043Z,7.40
2022-11-15T10:39:42.672Z,7.40
2022-11-15T10:42:27.980Z,7.40
2022-11-15T10:44:56.560Z,7.40
2022-11-15T10:47:36.036Z,7.40
2022-11-15T10:50:27.276Z,7.40
2022-11-15T10:52:55.920Z,7.40
2022-11-15T10:55:32.000Z,7.50
2022-11-15T10:58:05.825Z,7.50
2022-11-15T11:00:39.626Z,7.50
2022-11-15T11:03:36.787Z,7.50
2022-11-15T11:06:11.364Z,7.50
2022-11-15T11:08:40.694Z,7.50
2022-11-15T11:11:11.247Z,7.50
2022-11-15T11:13:41.249Z,7.50
2022-11-15T11:16:37.876Z,7.40
2022-11-15T11:19:20.633Z,7.40
2022-11-15T11:21:54.633Z,7.40
2022-11-15T11:24:30.927Z,7.50
2022-11-15T11:27:16.678Z,7.50
2022-11-15T11:30:00.134Z,7.50
2022-11-15T11:32:43.179Z,7.50
2022-11-15T11:35:15.350Z,7.50
2022-11-15T11:38:03.295Z,7.40
2022-11-15T11:40:50.261Z,7.40
2022-11-15T11:43:28.406Z,7.40
2022-11-15T11:46:21.680Z,7.40
2022-11-15T11:48:54.651Z,7.30
2022-11-15T11:51:29.992Z,7.30
2022-11-15T11:54:04.667Z,7.40
2022-11-15T11:56:35.700Z,7.40
2022-11-15T11:59:12.165Z,7.40
2022-11-15T12:01:45.353Z,7.40
2022-11-15T12:04:18.309Z,7.40
2022-11-15T12:06:53.248Z,7.40
2022-11-15T12:09:28.600Z,7.40
2022-11-15T12:12:02.769Z,7.40
2022-11-15T12:14:38.687Z,7.40
2022-11-15T12:17:07.197Z,7.30
2022-11-15T12:19:35.964Z,7.20
2022-11-15T12:22:09.342Z,7.30
2022-11-15T12:24:42.348Z,7.20
2022-11-15T12:27:23.367Z,7.20
2022-11-15T12:30:00.451Z,7.20
2022-11-15T12:32:34.776Z,7.10
2022-11-15T12:35:05.166Z,7.10
2022-11-15T12:37:51.378Z,7.10
2022-11-15T12:40:38.544Z,7.10
2022-11-15T12:43:39.944Z,7.20
2022-11-15T12:46:14.903Z,7.20
2022-11-15T12:48:58.835Z,7.20
2022-11-15T12:52:06.956Z,7.20
2022-11-15T12:54:56.839Z,7.20
2022-11-15T12:57:41.013Z,7.10
2022-11-15T13:00:46.069Z,7.10
2022-11-15T13:03:30.739Z,7.00
2022-11-15T13:06:08.769Z,7.10
2022-11-15T13:08:51.965Z,7.00
2022-11-15T13:11:52.815Z,7.00
2022-11-15T13:14:52.860Z,7.00
2022-11-15T13:17:36.219Z,7.00
2022-11-15T13:20:24.115Z,7.00
2022-11-15T13:22:52.966Z,7.00
2022-11-15T13:25:29.184Z,7.00
2022-11-15T13:28:00.423Z,6.90
2022-11-15T13:30:33.260Z,6.90
2022-11-15T13:33:12.175Z,6.90
2022-11-15T13:35:44.073Z,6.90
2022-11-15T13:38:22.503Z,6.90
2022-11-15T13:40:50.656Z,6.80
2022-11-15T13:43:31.848Z,6.80
2022-11-15T13:46:22.404Z,6.80
2022-11-15T13:48:55.868Z,6.70
2022-11-15T13:51:29.876Z,6.70
2022-11-15T13:54:01.380Z,6.70
2022-11-15T13:56:31.048Z,6.60
2022-11-15T13:58:59.257Z,6.60
2022-11-15T14:01:34.793Z,6.60
2022-11-15T14:04:03.516Z,6.60
2022-11-15T14:06:33.349Z,6.60
2022-11-15T14:09:36.265Z,6.50
2022-11-15T14:12:23.792Z,6.50
2022-11-15T14:14:53.817Z,6.50
2022-11-15T14:17:24.659Z,6.50
2022-11-15T14:19:53.437Z,6.50
2022-11-15T14:22:27.419Z,6.50
2022-11-15T14:25:26.738Z,6.40
2022-11-15T14:28:13.699Z,6.40
2022-11-15T14:30:42.632Z,6.40
2022-11-15T14:33:25.020Z,6.40
2022-11-15T14:35:55.522Z,6.40
2022-11-15T14:38:25.089Z,6.30
2022-11-15T14:40:53.372Z,6.40
2022-11-15T14:43:21.987Z,6.30
2022-11-15T14:45:50.285Z,6.40
2022-11-15T14:48:18.431Z,6.30
2022-11-15T14:50:47.712Z,6.30
2022-11-15T14:53:18.088Z,6.30
2022-11-15T14:55:48.028Z,6.30
2022-11-15T14:58:16.174Z,6.30
2022-11-15T15:00:44.601Z,6.30
2022-11-15T15:03:13.146Z,6.30
2022-11-15T15:05:43.845Z,6.20
2022-11-15T15:08:12.997Z,6.20
2022-11-15T15:10:43.867Z,6.20
2022-11-15T15:13:19.004Z,6.30
2022-11-15T15:15:47.675Z,6.30
2022-11-15T15:18:16.442Z,6.30
2022-11-15T15:20:47.764Z,6.30
2022-11-15T15:23:19.136Z,6.30
2022-11-15T15:25:50.801Z,6.30
2022-11-15T15:28:20.562Z,6.20
2022-11-15T15:30:48.664Z,6.20
2022-11-15T15:33:16.926Z,6.20
2022-11-15T15:35:45.235Z,6.20
2022-11-15T15:38:14.775Z,6.20
2022-11-15T15:40:43.435Z,6.10
2022-11-15T15:43:11.621Z,6.20
2022-11-15T15:45:43.166Z,6.10
2022-11-15T15:48:14.897Z,6.10
2022-11-15T15:50:44.805Z,6.20
2022-11-15T15:53:14.958Z,6.20
2022-11-15T15:55:43.371Z,6.20
2022-11-15T15:58:12.233Z,6.10
2022-11-15T16:00:41.930Z,6.10
2022-11-15T16:03:10.385Z,6.10
2022-11-15T16:05:39.479Z,6.10
2022-11-15T16:08:07.701Z,6.10
2022-11-15T16:10:37.821Z,6.00
2022-11-15T16:13:06.809Z,6.00
2022-11-15T16:15:34.885Z,6.00
2022-11-15T16:18:06.335Z,6.00
2022-11-15T16:20:40.474Z,6.00
2022-11-15T16:23:10.410Z,6.00
2022-11-15T16:25:42.785Z,6.00
2022-11-15T16:28:19.177Z,6.00
2022-11-15T16:30:51.025Z,6.00
2022-11-15T16:33:23.311Z,6.00
2022-11-15T16:35:51.597Z,6.00
2022-11-15T16:38:20.257Z,6.00
2022-11-15T16:40:48.745Z,6.00
2022-11-15T16:43:17.110Z,6.00
2022-11-15T16:45:45.273Z,6.00
2022-11-15T16:48:26.700Z,6.00
2022-11-15T16:50:57.872Z,6.00
2022-11-15T16:53:26.497Z,6.00
2022-11-15T16:55:55.283Z,6.00
2022-11-15T16:58:24.140Z,6.00
2022-11-15T17:00:54.231Z,6.00
2022-11-15T17:03:23.063Z,6.00
2022-11-15T17:05:53.325Z,6.00
2022-11-15T17:08:22.621Z,6.00
2022-11-15T17:10:51.468Z,6.00
2022-11-15T17:13:20.124Z,6.00
2022-11-15T17:15:48.198Z,6.00
2022-11-15T17:18:16.590Z,6.00
2022-11-15T17:20:44.853Z,6.00
2022-11-15T17:23:15.830Z,6.10
2022-11-15T17:25:44.962Z,6.00
2022-11-15T17:28:13.508Z,6.00
2022-11-15T17:30:44.448Z,6.00
2022-11-15T17:33:14.914Z,6.00
2022-11-15T17:35:42.995Z,6.00
2022-11-15T17:38:11.050Z,6.00
2022-11-15T17:40:41.165Z,6.00
2022-11-15T17:43:09.308Z,6.00
2022-11-15T17:45:42.445Z,6.00
2022-11-15T17:48:10.547Z,6.00
2022-11-15T17:50:38.600Z,6.00
2022-11-15T17:53:07.220Z,6.00
2022-11-15T17:55:35.768Z,6.00
2022-11-15T17:58:05.236Z,6.00
2022-11-15T18:00:33.716Z,6.00
2022-11-15T18:03:03.908Z,6.00
2022-11-15T18:05:32.017Z,6.00
2022-11-15T18:08:00.171Z,6.00
2022-11-15T18:10:28.723Z,6.00
2022-11-15T18:12:56.936Z,5.90
2022-11-15T18:15:26.627Z,5.90
2022-11-15T18:18:00.643Z,5.90
2022-11-15T18:20:29.234Z,5.90
2022-11-15T18:22:57.836Z,5.90
2022-11-15T18:25:25.908Z,5.90
2022-11-15T18:27:55.564Z,5.90
2022-11-15T18:30:23.921Z,5.90
2022-11-15T18:32:54.308Z,5.90
2022-11-15T18:35:23.072Z,5.90
2022-11-15T18:37:51.143Z,5.90
2022-11-15T18:40:19.476Z,5.90
2022-11-15T18:42:48.115Z,5.90
2022-11-15T18:45:20.251Z,5.90
2022-11-15T18:47:54.033Z,5.90
2022-11-15T18:50:22.101Z,5.90
2022-11-15T18:52:50.220Z,5.90
2022-11-15T18:55:19.172Z,5.90
2022-11-15T18:57:47.251Z,5.90
2022-11-15T19:00:16.609Z,5.90
2022-11-15T19:02:45.190Z,5.90
2022-11-15T19:05:17.034Z,5.90
2022-11-15T19:07:48.914Z,5.90
2022-11-15T19:10:17.484Z,5.90
2022-11-15T19:12:47.199Z,5.90
2022-11-15T19:15:15.580Z,5.90
2022-11-15T19:17:43.681Z,5.90
2022-11-15T19:20:12.203Z,5.90
2022-11-15T19:22:41.962Z,5.80
2022-11-15T19:25:10.890Z,5.80
2022-11-15T19:27:38.983Z,5.80
2022-11-15T19:30:08.856Z,5.90
2022-11-15T19:32:36.916Z,5.80
2022-11-15T19:35:05.523Z,5.80
2022-11-15T19:37:34.144Z,5.80
2022-11-15T19:40:04.177Z,5.80
2022-11-15T19:42:32.293Z,5.80
2022-11-15T19:45:01.101Z,5.90
2022-11-15T19:47:29.184Z,5.80
2022-11-15T19:50:00.856Z,5.80
2022-11-15T19:52:29.633Z,5.90
2022-11-15T19:54:57.703Z,5.80
2022-11-15T19:57:27.194Z,5.90
2022-11-15T19:59:55.917Z,5.90
2022-11-15T20:02:24.063Z,5.80
2022-11-15T20:04:52.137Z,5.80
2022-11-15T20:07:20.993Z,5.80
2022-11-15T20:09:49.173Z,5.80
2022-11-15T20:12:17.273Z,5.80
2022-11-15T20:14:47.287Z,5.80
2022-11-15T20:17:15.456Z,5.80
2022-11-15T20:19:43.578Z,5.80
2022-11-15T20:22:11.875Z,5.80
2022-11-15T20:24:39.988Z,5.80
2022-11-15T20:27:08.562Z,5.80
2022-11-15T20:29:37.605Z,5.80
2022-11-15T20:32:09.757Z,5.80
2022-11-15T20:34:38.069Z,5.80
2022-11-15T20:37:06.149Z,5.80
2022-11-15T20:39:36.124Z,5.80
2022-11-15T20:42:04.593Z,5.80
2022-11-15T20:44:32.759Z,5.80
2022-11-15T20:47:00.925Z,5.80
2022-11-15T20:49:30.906Z,5.80
2022-11-15T20:51:59.109Z,5.80
2022-11-15T20:54:27.587Z,5.80
2022-11-15T20:56:56.078Z,5.80
2022-11-15T20:59:24.201Z,5.80
2022-11-15T21:01:52.935Z,5.80
2022-11-15T21:04:21.717Z,5.80
2022-11-15T21:06:51.236Z,5.80
2022-11-15T21:09:37.707Z,5.80
2022-11-15T21:12:12.406Z,5.80
2022-11-15T21:14:43.811Z,5.80
2022-11-15T21:17:12.056Z,5.70
2022-11-15T21:19:40.155Z,5.80
2022-11-15T21:22:11.975Z,5.70
2022-11-15T21:24:40.035Z,5.70
2022-11-15T21:27:08.373Z,5.70
2022-11-15T21:29:39.313Z,5.70
2022-11-15T21:32:08.465Z,5.70
2022-11-15T21:34:36.917Z,5.70
2022-11-15T21:37:06.082Z,5.70
2022-11-15T21:39:35.616Z,5.70
2022-11-15T21:42:04.252Z,5.70
2022-11-15T21:44:33.244Z,5.70
2022-11-15T21:47:01.428Z,5.70
2022-11-15T21:49:30.012Z,5.70
2022-11-15T21:51:58.187Z,5.70
2022-11-15T21:54:26.302Z,5.60
2022-11-15T21:56:55.882Z,5.60
2022-11-15T21:59:24.076Z,5.60
2022-11-15T22:02:09.915Z,5.60
2022-11-15T22:04:38.135Z,5.60
2022-11-15T22:07:06.293Z,5.60
2022-11-15T22:09:34.894Z,5.70
2022-11-15T22:12:05.128Z,5.70
2022-11-15T22:14:33.238Z,5.60
2022-11-15T22:17:01.896Z,5.60
2022-11-15T22:19:30.679Z,5.60
2022-11-15T22:21:58.889Z,5.60
2022-11-15T22:24:27.295Z,5.60
2022-11-15T22:26:55.684Z,5.60
2022-11-15T22:29:25.305Z,5.50
2022-11-15T22:31:53.933Z,5.50
2022-11-15T22:34:22.417Z,5.50
2022-11-15T22:37:19.243Z,5.50
2022-11-15T22:39:41.807Z,5.50
2022-11-15T22:42:10.102Z,5.50
2022-11-15T22:44:41.761Z,5.50
2022-11-15T22:47:10.144Z,5.50
2022-11-15T22:49:38.356Z,5.40
2022-11-15T22:52:06.771Z,5.40
2022-11-15T22:54:35.615Z,5.40
2022-11-15T22:57:05.908Z,5.40
2022-11-15T22:59:35.930Z,5.40
2022-11-15T23:02:06.592Z,5.40
2022-11-15T23:04:34.908Z,5.40
2022-11-15T23:07:03.290Z,5.40
2022-11-15T23:09:31.795Z,5.40
2022-11-15T23:12:17.555Z,5.40
2022-11-15T23:14:46.428Z,5.30
2022-11-15T23:17:16.284Z,5.30
2022-11-15T23:19:44.522Z,5.30
2022-11-15T23:22:26.765Z,5.30
2022-11-15T23:24:55.911Z,5.30
2022-11-15T23:27:24.263Z,5.30
2022-11-15T23:30:09.748Z,5.30
2022-11-15T23:32:57.163Z,5.30
2022-11-15T23:35:28.001Z,5.30
2022-11-15T23:37:56.671Z,5.30
2022-11-15T23:40:24.910Z,5.30
2022-11-15T23:42:53.347Z,5.30
2022-11-15T23:45:21.680Z,5.30
2022-11-15T23:47:55.723Z,5.30
2022-11-15T23:50:26.824Z,5.30
2022-11-15T23:52:55.123Z,5.30
2022-11-15T23:55:23.361Z,5.30
2022-11-15T23:57:52.070Z,5.30
